Nebraska City, NE (68410)

12:57 PM CDT on August 28, 2015 (GMT -0500)
Nebraska City Municipal | | Change Station
CLOSE
Current Station
Airport
Location: Nebraska City,
Elevation: 1161 ft
Nearby Weather Stations

Elev 1161 ft 40.61 °N, 95.86 °W | Updated 22 minutes ago

Overcast
Overcast
77 °F
Feels Like 77 °F
N
8
Wind Variable Wind from SW

Today
High -- | Low -- °F
--% Chance of Precip.
Yesterday
High -- | Low -- °F
Precip. -- in
6:46 AM 8:02 PM
Waxing Gibbous, 98% visible
Pressure 29.86 in
Visibility 10.0 miles
Clouds Overcast 3000 ft
Dew Point 66 °F
Humidity 68%
Rainfall 0.99 in
Snow Depth Not available.
UV 3 out of 12
Pollen 4.40 out of 12
Air Quality Not available.
Flu Activity Not available.
METAR KAFK 281735Z AUTO 23007KT 10SM OVC030 25/19 A2986 RMK AO2 T02520190
Pressure 29.86 in
Visibility 10.0 miles
Clouds Overcast 3000 ft
Dew Point 66 °F
Humidity 68%
Rainfall 0.99 in
Snow Depth Not available.
UV 3 out of 12
Pollen 4.40 out of 12
Air Quality Not available.
Flu Activity Not available.
METAR KAFK 281735Z AUTO 23007KT 10SM OVC030 25/19 A2986 RMK AO2 T02520190

10-Day Weather Forecast

×

Almanac

Astronomy

Aug. 28, 2015 Rise Set
Actual Time
Civil Twilight
Nautical Twilight
Astronomical Twilight
Moon
Length of Visible Light
Length of Day
Tomorrow will be .
, % of the Moon is Illuminated

Today's Extremes

State Highs State Lows

Community

WunderPhotos

Upload Photos

1,850,444 photos uploaded!

WunderBlogs® & News

Nearby

Air Quality

  Air Quality AQ Index Pollutant
Not available.

Snow Depth

Station Depth Elevation

Earthquake Activity

City Distance Mag. Time & Date
Minimum magnitude displayed is 2.5.

Coastal Water Temperatures

Place Temperature

Stations

Nearby Weather Stations

Station Location Temp. Windchill Dew Point Humidity Wind Precip. Elev Updated Type